Chaska, Minnesota
Current Conditions -  °F | °C
As of 6:53 PM on Friday 24 Oct 2014 (Local Time) from KFCM Reporting Station
Clear Clear  
Wind Chill: 63°   Ceiling: Unl
Heat Index: 63°   Visibility: 10mi
Dew Point: 53°   Wind: 5mph
Humidity: 70%   Direction: 210°SSW
Pressure: 29.85"   Gusts: NA
Location:  44.79°N, 93.6°W
Report Text: KFCM 242353Z 21004KT 10SM CLR 17/12 A2985 RMK AO2 SLP108 T01720117 10206 20172 51007
Loading
Personal Weather Stations






























Interactive Weather Map
Tropical Storm Tracking
New forecast layout! Learn more

10-Day Weather Forecast

Advertisements
Track Severe Weather on mobile